KEVV/EVV METAR and TAF weather

Enter ICAO airport designator
Station Type Date Time Source
KEVV METAR 2021/03/06 01:54 UTC NOAA

KEVV 060154Z 34004KT 10SM CLR 06/M06 A3032 RMK AO2 SLP268 T00561056 $


Station Type Date Time Source
KEVV Decoded METAR 2021/03/06 01:54 UTC NOAA

EVANSVILLE REGIONAL, IN, United States (KEVV) 38-02N 087-32W 117M
Mar 05, 2021 - 08:54 PM EST / 2021.03.06 0154 UTC
Wind: from the NNW (340 degrees) at 5 MPH (4 KT):0
Visibility: 10 mile(s):0
Sky conditions: clear
Temperature: 42.1 F (5.6 C)
Dew Point: 21.9 F (-5.6 C)
Relative Humidity: 44%
Pressure (altimeter): 30.32 in. Hg (1026 hPa)
ob: KEVV 060154Z 34004KT 10SM CLR 06/M06 A3032 RMK AO2 SLP268 T00561056
cycle: 2

Station Type Date Time Source
KEVV TAF 2021/03/05 18:48 UTC NOAA

TAF KEVV 051738Z 0518/0618 06008KT P6SM SCT200

Example: see airport list